Terminal Aerodrome Forecast
Issued by NWS

Home | Current Version | Previous Version | Text Only | Print | Product List | Glossary On
Versions: 1 2 3 4 5 6 7 8 9 10 11 12 13
925
FTUS42 KTAE 261726
TAFDHN
TAF
KDHN 261726Z 2618/2718 18013G18KT P6SM BKN070
     FM270000 17008KT P6SM BKN050
     FM271400 21018G26KT P6SM VCTS BKN025CB BKN050=

USA.gov is the U.S. government's official web portal to all federal, state and local government web resources and services.